Time;durP1;ratioP1;P1;durP2;ratioP2;P2;SDS_P1;SDS_P2;PMS_P1;PMS_P2;Temp;Humidity;BMP_temperature;BMP_pressure;BME280_temperature;BME280_humidity;BME280_pressure;Samples;Min_cycle;Max_cycle;Signal;HPM_P1;HPM_P2
2023/04/06 00:01:34;;;;;;;5.03;3.17;;;12.60;90.80;;;;;;5068432;28;20475;-63
2023/04/06 00:03:59;;;;;;;4.13;3.30;;;12.60;90.70;;;;;;5072964;28;20468;-62
2023/04/06 00:06:26;;;;;;;4.63;3.08;;;12.60;90.70;;;;;;5065061;28;20047;-57
2023/04/06 00:08:52;;;;;;;4.10;3.30;;;12.70;90.70;;;;;;5078757;28;20161;-57
2023/04/06 00:11:18;;;;;;;3.25;2.90;;;12.70;90.70;;;;;;5072765;28;20115;-63
2023/04/06 00:13:44;;;;;;;3.50;2.63;;;12.80;90.70;;;;;;5073008;28;20040;-63
2023/04/06 00:16:10;;;;;;;3.72;2.97;;;12.80;90.60;;;;;;5072150;28;20028;-57
2023/04/06 00:18:36;;;;;;;6.95;3.92;;;12.90;90.60;;;;;;5073570;28;20399;-59
2023/04/06 00:21:02;;;;;;;4.97;3.53;;;12.90;90.50;;;;;;5071271;28;20028;-64
2023/04/06 00:23:27;;;;;;;5.63;3.47;;;12.90;90.40;;;;;;5075705;28;20530;-63
2023/04/06 00:25:53;;;;;;;4.53;3.00;;;13.00;90.30;;;;;;5068859;28;20182;-63
2023/04/06 00:28:24;;;;;;;3.63;3.25;;;13.00;90.20;;;;;;5071646;28;20036;-62
2023/04/06 00:30:52;;;;;;;4.50;3.42;;;13.00;90.10;;;;;;5072308;28;20028;-63
2023/04/06 00:33:18;;;;;;;5.80;3.60;;;13.00;90.00;;;;;;5068087;28;20117;-63
2023/04/06 00:35:44;;;;;;;5.35;3.08;;;13.00;90.00;;;;;;5072886;28;20028;-63
2023/04/06 00:38:10;;;;;;;3.83;3.10;;;13.00;89.80;;;;;;5070142;28;20028;-64
2023/04/06 00:40:35;;;;;;;4.65;3.22;;;13.00;89.50;;;;;;5071682;28;20040;-57
2023/04/06 00:43:01;;;;;;;3.97;3.25;;;13.00;89.20;;;;;;5072049;28;20020;-56
2023/04/06 00:45:27;;;;;;;3.85;3.00;;;13.00;89.00;;;;;;5065287;28;20028;-62
2023/04/06 00:47:53;;;;;;;4.30;2.83;;;13.00;88.80;;;;;;5079287;28;20028;-62
2023/04/06 00:50:18;;;;;;;3.58;2.80;;;13.00;88.70;;;;;;5058896;28;20028;-64
2023/04/06 00:52:44;;;;;;;4.93;3.20;;;13.00;88.60;;;;;;5070999;28;20028;-65
2023/04/06 00:55:10;;;;;;;3.38;3.08;;;13.00;88.60;;;;;;5064620;28;20033;-63
2023/04/06 00:57:36;;;;;;;5.20;3.55;;;13.00;88.50;;;;;;5074689;28;20508;-64
2023/04/06 01:00:02;;;;;;;5.13;3.30;;;13.00;88.50;;;;;;5071110;28;20443;-64
2023/04/06 01:02:28;;;;;;;3.60;2.92;;;12.90;88.30;;;;;;5072017;28;20025;-64
2023/04/06 01:04:54;;;;;;;4.82;2.88;;;13.00;88.40;;;;;;5067692;28;20044;-64
2023/04/06 01:07:20;;;;;;;4.65;3.40;;;13.00;88.40;;;;;;5061297;28;20115;-64
2023/04/06 01:09:45;;;;;;;4.40;2.90;;;13.00;88.50;;;;;;5062182;28;20120;-64
2023/04/06 01:12:11;;;;;;;4.10;3.45;;;13.00;88.70;;;;;;5068146;28;20032;-63
2023/04/06 01:14:37;;;;;;;5.35;3.80;;;12.90;88.60;;;;;;5071740;28;20031;-64
2023/04/06 01:17:02;;;;;;;4.18;3.50;;;13.00;88.70;;;;;;5070186;28;20031;-63
2023/04/06 01:19:28;;;;;;;5.65;3.53;;;13.00;88.60;;;;;;5071387;28;20723;-64
2023/04/06 01:21:54;;;;;;;5.75;3.45;;;13.00;88.40;;;;;;5070983;28;20031;-63
2023/04/06 01:24:21;;;;;;;4.03;3.50;;;13.00;88.30;;;;;;5067326;28;20076;-63
2023/04/06 01:26:46;;;;;;;5.13;3.72;;;13.00;88.30;;;;;;5067046;28;20118;-62
2023/04/06 01:29:12;;;;;;;3.85;3.53;;;13.00;88.40;;;;;;5069274;28;20107;-62
2023/04/06 01:31:39;;;;;;;5.45;3.88;;;13.00;88.40;;;;;;5069460;28;20020;-58
2023/04/06 01:34:04;;;;;;;4.50;3.65;;;13.00;88.40;;;;;;5074382;28;20481;-58
2023/04/06 01:36:30;;;;;;;5.60;4.05;;;13.00;88.40;;;;;;5067672;28;20033;-58
2023/04/06 01:38:56;;;;;;;6.93;3.95;;;12.90;88.40;;;;;;5060218;28;20032;-58
2023/04/06 01:41:22;;;;;;;5.35;3.80;;;12.90;88.50;;;;;;5070647;28;20375;-65
2023/04/06 01:43:49;;;;;;;6.25;3.97;;;12.90;88.50;;;;;;5070353;28;20058;-65
2023/04/06 01:46:15;;;;;;;4.70;3.83;;;12.90;88.50;;;;;;5065678;28;20073;-62
2023/04/06 01:48:41;;;;;;;5.60;3.90;;;12.90;88.50;;;;;;5068780;28;20063;-62
2023/04/06 01:51:06;;;;;;;6.15;3.75;;;12.90;88.70;;;;;;5071376;28;20066;-62
2023/04/06 01:53:32;;;;;;;5.53;3.97;;;12.90;88.70;;;;;;5070090;28;20027;-62
2023/04/06 01:55:57;;;;;;;5.18;3.75;;;12.80;88.60;;;;;;5067715;28;20024;-61
2023/04/06 01:58:23;;;;;;;3.78;3.38;;;12.80;88.90;;;;;;5072969;28;20109;-61
2023/04/06 02:00:49;;;;;;;9.13;3.47;;;12.70;88.90;;;;;;5071346;28;20040;-62
2023/04/06 02:03:14;;;;;;;4.28;3.20;;;12.70;89.00;;;;;;5064270;28;20043;-62
2023/04/06 02:05:40;;;;;;;4.40;3.65;;;12.70;89.40;;;;;;5078323;28;20033;-63
2023/04/06 02:08:06;;;;;;;5.82;3.85;;;12.70;89.70;;;;;;5072426;28;20444;-62
2023/04/06 02:10:33;;;;;;;5.45;3.58;;;12.60;89.90;;;;;;5075532;28;20082;-61
2023/04/06 02:12:59;;;;;;;4.28;3.35;;;12.60;90.00;;;;;;5074778;28;20427;-61
2023/04/06 02:15:25;;;;;;;7.13;3.97;;;12.60;89.90;;;;;;5079284;28;20445;-62
2023/04/06 02:17:52;;;;;;;9.50;3.80;;;12.60;90.00;;;;;;5074568;28;20077;-63
2023/04/06 02:20:18;;;;;;;4.82;3.58;;;12.50;90.00;;;;;;5072644;28;20035;-62
2023/04/06 02:22:44;;;;;;;7.50;4.10;;;12.50;90.00;;;;;;5071585;28;20032;-63
2023/04/06 02:25:09;;;;;;;4.57;3.45;;;12.40;90.20;;;;;;5076777;28;20483;-63
2023/04/06 02:27:36;;;;;;;4.75;3.45;;;12.40;90.30;;;;;;5073848;28;20040;-63
2023/04/06 02:30:02;;;;;;;4.35;3.17;;;12.40;90.30;;;;;;5051423;28;20031;-63
2023/04/06 02:32:28;;;;;;;5.60;3.50;;;12.30;90.40;;;;;;5073882;28;20029;-63
2023/04/06 02:34:54;;;;;;;4.88;3.40;;;12.30;90.50;;;;;;5082762;28;20024;-62
2023/04/06 02:37:19;;;;;;;4.40;3.53;;;12.30;90.50;;;;;;5071573;28;20037;-63
2023/04/06 02:39:45;;;;;;;4.55;3.70;;;12.20;90.60;;;;;;5064871;28;20036;-63
2023/04/06 02:42:11;;;;;;;4.07;3.67;;;12.20;90.60;;;;;;5068360;28;20126;-62
2023/04/06 02:44:36;;;;;;;4.97;4.03;;;12.10;90.70;;;;;;5069494;28;20435;-62
2023/04/06 02:47:02;;;;;;;5.07;3.88;;;12.00;90.80;;;;;;5069635;28;20400;-55
2023/04/06 02:49:28;;;;;;;5.88;3.85;;;12.00;91.00;;;;;;5074488;28;20459;-57
2023/04/06 02:51:53;;;;;;;4.80;3.67;;;12.00;91.20;;;;;;5073450;28;20024;-63
2023/04/06 02:54:19;;;;;;;4.18;3.50;;;11.90;91.30;;;;;;5073885;28;20059;-63
2023/04/06 02:56:45;;;;;;;4.75;3.65;;;11.90;91.30;;;;;;5071298;28;20431;-63
2023/04/06 02:59:10;;;;;;;4.43;3.67;;;11.80;91.50;;;;;;5071637;28;20082;-63
2023/04/06 03:01:36;;;;;;;4.47;3.60;;;11.80;91.70;;;;;;5070407;28;20024;-63
2023/04/06 03:04:02;;;;;;;4.97;3.75;;;11.80;91.90;;;;;;5074951;28;20434;-63
2023/04/06 03:06:28;;;;;;;5.78;4.13;;;11.80;92.00;;;;;;5074212;28;20124;-58
2023/04/06 03:08:54;;;;;;;5.65;3.72;;;11.80;92.10;;;;;;5072859;28;20483;-56
2023/04/06 03:11:20;;;;;;;6.05;4.20;;;11.80;92.10;;;;;;5077159;28;20028;-65
2023/04/06 03:13:46;;;;;;;6.00;3.67;;;11.80;92.20;;;;;;5072931;28;20062;-64
2023/04/06 03:16:11;;;;;;;5.97;3.90;;;11.80;92.20;;;;;;5073868;28;20029;-61
2023/04/06 03:18:37;;;;;;;9.13;3.92;;;11.80;92.30;;;;;;5065646;28;20037;-62
2023/04/06 03:21:03;;;;;;;6.80;4.10;;;11.80;92.40;;;;;;5068623;28;20029;-61
2023/04/06 03:23:28;;;;;;;5.65;4.05;;;11.80;92.40;;;;;;5070988;28;20114;-62
2023/04/06 03:25:54;;;;;;;6.03;4.28;;;11.80;92.40;;;;;;5070010;28;20070;-62
2023/04/06 03:28:20;;;;;;;6.32;4.20;;;11.90;92.30;;;;;;5064694;28;20387;-62
2023/04/06 03:30:46;;;;;;;6.25;4.40;;;11.80;92.20;;;;;;5068606;28;20052;-62
2023/04/06 03:33:12;;;;;;;5.63;3.95;;;11.80;92.20;;;;;;5072966;28;20029;-62
2023/04/06 03:35:38;;;;;;;5.78;4.32;;;11.80;92.30;;;;;;5073653;28;20024;-63
2023/04/06 03:38:04;;;;;;;6.45;4.13;;;11.80;92.40;;;;;;5072823;28;20033;-63
2023/04/06 03:40:31;;;;;;;6.80;4.18;;;11.80;92.60;;;;;;5066054;28;20029;-63
2023/04/06 03:42:57;;;;;;;5.18;4.10;;;11.80;92.70;;;;;;5074885;28;20429;-62
2023/04/06 03:45:22;;;;;;;6.97;4.50;;;11.80;92.70;;;;;;5062136;28;20033;-63
2023/04/06 03:47:48;;;;;;;7.78;4.30;;;11.80;92.80;;;;;;5083613;28;20036;-63
2023/04/06 03:50:13;;;;;;;5.60;4.22;;;11.80;93.00;;;;;;5076421;28;20043;-63
2023/04/06 03:52:39;;;;;;;5.72;4.18;;;11.80;93.10;;;;;;5077596;28;20083;-63
2023/04/06 03:55:06;;;;;;;6.40;5.05;;;11.80;93.20;;;;;;5074709;28;20036;-63
2023/04/06 03:57:31;;;;;;;7.32;4.85;;;11.80;93.10;;;;;;5066915;28;20032;-63
2023/04/06 03:59:57;;;;;;;4.90;4.30;;;11.80;93.10;;;;;;5075850;28;20025;-62
2023/04/06 04:02:22;;;;;;;5.95;4.53;;;11.80;93.00;;;;;;5072302;28;20075;-62
2023/04/06 04:04:48;;;;;;;6.75;4.45;;;11.80;93.00;;;;;;5073143;28;20056;-63
2023/04/06 04:07:14;;;;;;;7.05;4.70;;;11.80;93.00;;;;;;5072775;28;20056;-63
2023/04/06 04:09:39;;;;;;;8.68;4.68;;;11.80;93.10;;;;;;5072596;28;20028;-63
2023/04/06 04:12:05;;;;;;;6.70;4.95;;;11.80;93.00;;;;;;5074154;28;20017;-61
2023/04/06 04:14:31;;;;;;;7.03;4.88;;;11.70;93.10;;;;;;5070512;28;20110;-61
2023/04/06 04:16:57;;;;;;;7.32;4.82;;;11.70;93.20;;;;;;5063168;28;20062;-55
2023/04/06 04:19:22;;;;;;;7.13;4.38;;;11.70;93.30;;;;;;5072595;28;20102;-57
2023/04/06 04:21:48;;;;;;;10.63;5.35;;;11.70;93.40;;;;;;5073615;28;20113;-63
2023/04/06 04:24:14;;;;;;;6.82;4.57;;;11.70;93.70;;;;;;5072720;28;20052;-63
2023/04/06 04:26:40;;;;;;;6.75;4.72;;;11.70;93.40;;;;;;5071197;28;20037;-57
2023/04/06 04:29:06;;;;;;;6.90;4.60;;;11.70;93.40;;;;;;5069133;28;20692;-57
2023/04/06 04:31:31;;;;;;;6.05;4.60;;;11.70;93.30;;;;;;5073004;28;20460;-58
2023/04/06 04:33:59;;;;;;;8.30;5.15;;;11.70;93.40;;;;;;5064599;28;20029;-56
2023/04/06 04:36:25;;;;;;;6.10;4.82;;;11.70;93.40;;;;;;5058690;28;20032;-58
2023/04/06 04:38:51;;;;;;;5.70;4.45;;;11.70;93.40;;;;;;5055510;28;20483;-57
2023/04/06 04:41:17;;;;;;;7.28;4.50;;;11.70;93.40;;;;;;5072775;28;20038;-57
2023/04/06 04:43:43;;;;;;;7.30;5.07;;;11.60;93.60;;;;;;5067748;28;20033;-57
2023/04/06 04:46:09;;;;;;;7.88;4.70;;;11.60;93.60;;;;;;5057802;28;20028;-64
2023/04/06 04:48:34;;;;;;;5.68;4.60;;;11.60;93.70;;;;;;5066822;28;20045;-64
2023/04/06 04:51:00;;;;;;;7.47;4.90;;;11.60;93.90;;;;;;5066919;28;20062;-65
2023/04/06 04:53:26;;;;;;;7.28;5.18;;;11.50;94.00;;;;;;5060973;28;20176;-63
2023/04/06 04:55:51;;;;;;;6.40;4.97;;;11.50;94.10;;;;;;5070834;28;20020;-64
2023/04/06 04:58:19;;;;;;;9.23;5.82;;;11.50;94.20;;;;;;5064793;28;20129;-65
2023/04/06 05:00:45;;;;;;;8.15;5.38;;;11.50;94.30;;;;;;5062957;28;20025;-64
2023/04/06 05:03:21;;;;;;;8.88;5.70;;;11.50;94.50;;;;;;5073606;28;20049;-64
2023/04/06 05:05:46;;;;;;;9.02;6.07;;;11.50;94.30;;;;;;5067080;28;20032;-63
2023/04/06 05:08:12;;;;;;;8.05;5.85;;;11.40;94.60;;;;;;5063102;28;20512;-63
2023/04/06 05:10:38;;;;;;;9.95;6.18;;;11.40;94.60;;;;;;5061470;28;20027;-61
2023/04/06 05:13:04;;;;;;;8.48;6.32;;;11.40;94.80;;;;;;5069716;28;20033;-61
2023/04/06 05:15:30;;;;;;;9.82;6.72;;;11.40;94.90;;;;;;5056264;28;20548;-64
2023/04/06 05:17:55;;;;;;;9.55;7.25;;;11.40;95.30;;;;;;5055396;28;20035;-64
2023/04/06 05:20:21;;;;;;;10.98;7.63;;;11.40;95.60;;;;;;5066288;28;20028;-64
2023/04/06 05:22:47;;;;;;;9.90;7.32;;;11.40;95.60;;;;;;5074568;28;20111;-65
2023/04/06 05:25:13;;;;;;;10.13;7.50;;;11.40;95.60;;;;;;5073230;28;20129;-64
2023/04/06 05:27:40;;;;;;;12.50;7.93;;;11.40;95.60;;;;;;5070195;28;20036;-64
2023/04/06 05:30:07;;;;;;;12.05;8.43;;;11.40;95.70;;;;;;5066362;28;20461;-63
2023/04/06 05:32:32;;;;;;;11.25;8.10;;;11.40;95.80;;;;;;5064095;28;20020;-58
2023/04/06 05:34:58;;;;;;;12.63;9.05;;;11.30;95.70;;;;;;5063913;28;20024;-56
2023/04/06 05:37:24;;;;;;;14.55;9.43;;;11.40;95.80;;;;;;5067769;28;20044;-63
2023/04/06 05:39:49;;;;;;;15.65;9.15;;;11.30;95.80;;;;;;5071614;28;20418;-62
2023/04/06 05:42:16;;;;;;;14.80;9.10;;;11.30;95.90;;;;;;5065193;28;20033;-62
2023/04/06 05:44:42;;;;;;;13.73;9.13;;;11.30;96.10;;;;;;5068202;28;20091;-62
2023/04/06 05:47:07;;;;;;;16.88;9.90;;;11.30;96.30;;;;;;5064692;28;20360;-57
2023/04/06 05:49:34;;;;;;;16.73;9.48;;;11.30;96.30;;;;;;5064829;28;20040;-56
2023/04/06 05:52:00;;;;;;;14.93;10.07;;;11.30;96.30;;;;;;5058384;28;20028;-57
2023/04/06 05:54:26;;;;;;;16.25;9.68;;;11.30;96.40;;;;;;5070544;28;20028;-59
2023/04/06 05:56:51;;;;;;;15.63;9.80;;;11.30;96.60;;;;;;5058217;28;20094;-63
2023/04/06 05:59:17;;;;;;;15.50;10.18;;;11.30;96.80;;;;;;5056028;28;20094;-63
2023/04/06 06:01:42;;;;;;;17.15;10.15;;;11.40;96.80;;;;;;5068369;28;20115;-58
2023/04/06 06:04:08;;;;;;;14.93;9.90;;;11.40;96.90;;;;;;5053243;28;20107;-56
2023/04/06 06:06:34;;;;;;;14.57;9.50;;;11.40;97.00;;;;;;5066395;28;20119;-58
2023/04/06 06:09:00;;;;;;;15.57;9.60;;;11.50;97.10;;;;;;5066057;28;20121;-59
2023/04/06 06:11:27;;;;;;;15.70;9.38;;;11.50;97.00;;;;;;5066943;28;20039;-62
2023/04/06 06:13:52;;;;;;;13.77;9.82;;;11.60;96.90;;;;;;5035399;28;20499;-62
2023/04/06 06:16:19;;;;;;;13.68;9.55;;;11.60;96.70;;;;;;5061325;28;20112;-62
2023/04/06 06:18:45;;;;;;;14.38;9.73;;;11.60;96.60;;;;;;5056207;28;20036;-62
2023/04/06 06:21:14;;;;;;;15.18;11.15;;;11.60;96.60;;;;;;5067867;28;20028;-61
2023/04/06 06:23:42;;;;;;;15.70;9.85;;;11.60;96.50;;;;;;5057802;28;20083;-62
2023/04/06 06:26:08;;;;;;;13.10;9.48;;;11.60;96.40;;;;;;5057337;28;20063;-63
2023/04/06 06:28:33;;;;;;;14.20;9.45;;;11.60;96.20;;;;;;5064659;28;20117;-63
2023/04/06 06:30:59;;;;;;;18.20;10.60;;;11.60;96.00;;;;;;5059280;28;20029;-61
2023/04/06 06:33:26;;;;;;;15.25;10.00;;;11.60;95.90;;;;;;5054991;28;20036;-62
2023/04/06 06:35:52;;;;;;;14.30;9.52;;;11.50;95.90;;;;;;5056376;28;20036;-62
2023/04/06 06:38:18;;;;;;;16.02;10.18;;;11.50;95.80;;;;;;5047949;28;20052;-64
2023/04/06 06:40:44;;;;;;;15.68;10.38;;;11.40;95.90;;;;;;5052639;28;20050;-60
2023/04/06 06:43:10;;;;;;;17.35;10.30;;;11.40;96.10;;;;;;5070048;28;20036;-63
2023/04/06 06:45:36;;;;;;;14.13;10.20;;;11.40;96.10;;;;;;5038149;28;21218;-61
2023/04/06 06:48:01;;;;;;;16.63;10.52;;;11.40;96.10;;;;;;5053439;28;20375;-62
2023/04/06 06:50:27;;;;;;;17.45;11.23;;;11.30;95.80;;;;;;5048497;28;20032;-63
2023/04/06 06:52:53;;;;;;;17.80;11.68;;;11.30;95.90;;;;;;5038102;28;20123;-62
2023/04/06 06:55:19;;;;;;;17.55;11.18;;;11.20;96.10;;;;;;5056391;28;20040;-60
2023/04/06 06:57:46;;;;;;;18.52;12.15;;;11.20;96.50;;;;;;5062343;28;20072;-62
2023/04/06 07:00:13;;;;;;;16.92;11.43;;;11.20;96.70;;;;;;5050702;28;20021;-62
2023/04/06 07:02:39;;;;;;;16.08;11.77;;;11.20;96.90;;;;;;5056285;28;20125;-64
2023/04/06 07:05:05;;;;;;;16.70;11.93;;;11.20;96.80;;;;;;5057293;28;20768;-64
2023/04/06 07:07:33;;;;;;;17.45;11.95;;;11.20;96.70;;;;;;5053445;28;20479;-62
2023/04/06 07:10:00;;;;;;;16.98;11.25;;;11.20;96.70;;;;;;5060237;28;20085;-66
2023/04/06 07:12:26;;;;;;;15.93;11.52;;;11.20;96.80;;;;;;5051455;28;20033;-63
2023/04/06 07:14:52;;;;;;;18.63;11.30;;;11.20;97.10;;;;;;5057657;28;20082;-64
2023/04/06 07:17:18;;;;;;;17.85;12.27;;;11.20;97.10;;;;;;5056047;28;20029;-66
2023/04/06 07:19:44;;;;;;;15.70;11.80;;;11.20;96.90;;;;;;5043353;28;20027;-61
2023/04/06 07:22:10;;;;;;;16.48;11.13;;;11.30;96.90;;;;;;5056546;28;20034;-64
2023/04/06 07:24:36;;;;;;;16.48;11.32;;;11.30;96.80;;;;;;5051350;28;20075;-65
2023/04/06 07:27:02;;;;;;;18.65;10.95;;;11.40;96.80;;;;;;5045908;28;20068;-61
2023/04/06 07:29:28;;;;;;;15.18;11.20;;;11.40;96.80;;;;;;5040302;28;20082;-60
2023/04/06 07:31:54;;;;;;;16.25;11.55;;;11.40;96.40;;;;;;5045902;28;20360;-64
2023/04/06 07:34:20;;;;;;;15.27;10.98;;;11.50;96.20;;;;;;5047913;28;20051;-63
2023/04/06 07:36:46;;;;;;;14.70;10.65;;;11.50;95.90;;;;;;5050090;28;20036;-64
2023/04/06 07:39:12;;;;;;;16.77;11.50;;;11.50;96.00;;;;;;5053685;28;20036;-66
2023/04/06 07:41:37;;;;;;;13.02;10.13;;;11.50;96.00;;;;;;5056364;28;20040;-62
2023/04/06 07:44:04;;;;;;;15.02;10.50;;;11.50;96.00;;;;;;5050397;28;20032;-63
2023/04/06 07:46:30;;;;;;;15.65;10.43;;;11.50;95.90;;;;;;5057405;28;20136;-65
2023/04/06 07:49:00;;;;;;;16.27;10.73;;;11.50;95.80;;;;;;5056695;28;20524;-62
2023/04/06 07:51:26;;;;;;;18.00;11.43;;;11.50;95.50;;;;;;5040990;28;20029;-63
2023/04/06 07:53:52;;;;;;;16.35;10.55;;;11.50;95.50;;;;;;5041588;28;20119;-58
2023/04/06 07:56:18;;;;;;;18.13;11.48;;;11.40;95.70;;;;;;5043975;28;20848;-61
2023/04/06 07:58:44;;;;;;;17.63;10.35;;;11.40;95.70;;;;;;5027090;28;20040;-59
2023/04/06 08:01:10;;;;;;;16.67;10.25;;;11.40;95.50;;;;;;5036344;28;20060;-60
2023/04/06 08:03:36;;;;;;;17.30;10.10;;;11.40;95.60;;;;;;5036322;28;20948;-60
2023/04/06 08:06:02;;;;;;;17.63;9.93;;;11.40;95.60;;;;;;5046584;28;20032;-61
2023/04/06 08:08:28;;;;;;;12.57;9.65;;;11.40;95.80;;;;;;5039855;28;20036;-64
2023/04/06 08:10:54;;;;;;;15.43;9.63;;;11.40;95.90;;;;;;5039745;28;20078;-63
2023/04/06 08:13:20;;;;;;;10.50;7.55;;;11.50;95.90;;;;;;5035171;28;20120;-63
2023/04/06 08:15:46;;;;;;;11.27;8.13;;;11.50;95.80;;;;;;5046038;28;20036;-63
2023/04/06 08:18:11;;;;;;;12.18;8.43;;;11.50;95.90;;;;;;5036967;28;20494;-63
2023/04/06 08:20:37;;;;;;;11.55;8.85;;;11.60;95.90;;;;;;5024110;28;20041;-64
2023/04/06 08:23:03;;;;;;;11.80;8.57;;;11.60;95.60;;;;;;5035832;28;20118;-63
2023/04/06 08:25:29;;;;;;;14.25;9.00;;;11.60;95.30;;;;;;5031400;28;20887;-62
2023/04/06 08:27:55;;;;;;;13.48;9.05;;;11.70;95.10;;;;;;5040890;28;20039;-63
2023/04/06 08:30:21;;;;;;;14.45;8.60;;;11.70;95.00;;;;;;5034835;28;20082;-60
2023/04/06 08:32:47;;;;;;;10.25;7.72;;;11.70;94.90;;;;;;5036051;28;20028;-61
2023/04/06 08:35:13;;;;;;;10.65;7.88;;;11.70;94.70;;;;;;5044782;28;20039;-62
2023/04/06 08:37:39;;;;;;;13.70;7.47;;;11.70;94.60;;;;;;5047092;28;20150;-64
2023/04/06 08:40:05;;;;;;;11.00;7.07;;;11.70;94.60;;;;;;5025283;28;20028;-62
2023/04/06 08:42:40;;;;;;;9.75;7.13;;;11.70;94.60;;;;;;5054089;28;20119;-61
2023/04/06 08:45:08;;;;;;;10.07;6.65;;;11.70;94.50;;;;;;5043638;28;20040;-61
2023/04/06 08:47:35;;;;;;;9.45;6.95;;;11.70;94.60;;;;;;5036043;28;23922;-64
2023/04/06 08:50:04;;;;;;;8.88;6.22;;;11.60;94.60;;;;;;5037710;28;20132;-65
2023/04/06 08:52:32;;;;;;;9.00;6.40;;;11.60;94.40;;;;;;5033083;28;20145;-61
2023/04/06 08:54:58;;;;;;;7.72;5.70;;;11.60;94.40;;;;;;5033629;28;20506;-62
2023/04/06 08:57:25;;;;;;;9.88;6.32;;;11.60;94.50;;;;;;5050715;28;20037;-65
2023/04/06 08:59:51;;;;;;;8.68;5.95;;;11.60;94.50;;;;;;5041413;28;20047;-61
2023/04/06 09:02:19;;;;;;;9.18;6.78;;;11.60;94.50;;;;;;5035762;28;20122;-61
2023/04/06 09:04:47;;;;;;;8.65;6.40;;;11.60;94.30;;;;;;5034348;28;20041;-65
2023/04/06 09:07:15;;;;;;;10.88;6.90;;;11.60;94.20;;;;;;5034094;28;20037;-65
2023/04/06 09:09:47;;;;;;;9.27;5.90;;;11.60;94.20;;;;;;5043247;28;20032;-63
2023/04/06 09:12:23;;;;;;;9.43;7.05;;;11.60;94.30;;;;;;5042422;28;20059;-61
2023/04/06 09:14:48;;;;;;;10.45;7.18;;;11.60;94.20;;;;;;5034457;28;20036;-60
2023/04/06 09:17:29;;;;;;;9.18;6.30;;;11.60;94.30;;;;;;5035711;28;20036;-60
2023/04/06 09:19:55;;;;;;;10.50;7.70;;;11.60;94.20;;;;;;5034297;28;20039;-60
2023/04/06 09:22:22;;;;;;;10.68;6.65;;;11.60;94.30;;;;;;5035889;28;20064;-62
2023/04/06 09:24:53;;;;;;;10.18;7.05;;;11.60;94.30;;;;;;5029402;28;20474;-61
2023/04/06 09:27:30;;;;;;;9.63;6.82;;;11.60;94.30;;;;;;5026491;28;21754;-66
2023/04/06 09:30:13;;;;;;;12.55;6.70;;;11.60;94.00;;;;;;5043815;28;20037;-62
2023/04/06 09:32:54;;;;;;;9.35;6.22;;;11.60;94.10;;;;;;5039155;28;20047;-62
2023/04/06 09:35:21;;;;;;;11.03;6.60;;;11.60;94.10;;;;;;5021540;28;21768;-61
2023/04/06 09:37:48;;;;;;;11.88;7.10;;;11.60;94.50;;;;;;5036659;28;20057;-61
2023/04/06 09:40:17;;;;;;;9.43;7.22;;;11.60;94.50;;;;;;5043734;28;20047;-60
2023/04/06 09:42:45;;;;;;;10.60;6.50;;;11.50;94.50;;;;;;5033621;28;20067;-61
2023/04/06 09:45:11;;;;;;;10.18;6.95;;;11.50;94.60;;;;;;5028361;28;20586;-60
2023/04/06 09:47:40;;;;;;;9.75;7.13;;;11.50;94.60;;;;;;5037747;28;20064;-63
2023/04/06 09:50:08;;;;;;;9.38;7.05;;;11.50;94.70;;;;;;5036829;28;20033;-60
2023/04/06 09:52:41;;;;;;;10.27;7.05;;;11.50;94.80;;;;;;5035323;28;20141;-60
2023/04/06 09:55:08;;;;;;;8.88;6.53;;;11.50;94.80;;;;;;5035520;28;20092;-62
2023/04/06 09:57:49;;;;;;;11.38;7.53;;;11.50;94.90;;;;;;5041512;28;20063;-62
2023/04/06 10:00:19;;;;;;;11.63;7.82;;;11.60;94.80;;;;;;5039751;28;20036;-64
2023/04/06 10:03:03;;;;;;;10.88;6.85;;;11.60;94.70;;;;;;5039369;28;20037;-64
2023/04/06 10:05:43;;;;;;;9.85;6.93;;;11.60;94.60;;;;;;5036476;28;20032;-61
2023/04/06 10:08:10;;;;;;;9.65;7.35;;;11.60;94.50;;;;;;5036402;28;21720;-62
2023/04/06 10:10:37;;;;;;;10.82;7.55;;;11.60;94.70;;;;;;5034726;28;20032;-64
2023/04/06 10:13:04;;;;;;;11.68;7.53;;;11.60;94.70;;;;;;5032926;28;20029;-65
2023/04/06 10:15:31;;;;;;;9.27;6.75;;;11.60;94.70;;;;;;5027976;28;20173;-61
2023/04/06 10:17:58;;;;;;;8.20;6.35;;;11.70;94.60;;;;;;5041822;28;21232;-60
2023/04/06 10:20:35;;;;;;;13.25;7.90;;;11.70;94.50;;;;;;5047112;28;20394;-62
2023/04/06 10:23:15;;;;;;;10.07;7.82;;;11.70;94.50;;;;;;5045146;28;20726;-65
2023/04/06 10:25:55;;;;;;;9.82;7.35;;;11.70;94.30;;;;;;5049869;28;20139;-66
2023/04/06 10:28:21;;;;;;;12.38;7.70;;;11.70;94.20;;;;;;5035255;28;20037;-61
2023/04/06 10:30:47;;;;;;;10.50;7.88;;;11.70;94.10;;;;;;5042374;28;20054;-64
2023/04/06 10:33:14;;;;;;;9.80;7.47;;;11.70;94.10;;;;;;5034591;28;20032;-63
2023/04/06 10:35:40;;;;;;;11.02;7.45;;;11.70;93.90;;;;;;5040994;28;20032;-61
2023/04/06 10:38:05;;;;;;;9.85;7.80;;;11.70;94.00;;;;;;5037740;28;20040;-62
2023/04/06 10:40:31;;;;;;;9.45;7.82;;;11.70;93.90;;;;;;5035979;28;20036;-62
2023/04/06 10:43:27;;;;;;;10.23;7.97;;;11.70;94.00;;;;;;5036263;28;20121;-62
2023/04/06 10:46:00;;;;;;;9.75;7.63;;;11.70;93.80;;;;;;5035638;28;20045;-63
2023/04/06 10:48:46;;;;;;;10.43;7.75;;;11.70;93.80;;;;;;5043507;28;23500;-59
2023/04/06 10:51:14;;;;;;;11.15;7.35;;;11.70;93.90;;;;;;5029477;28;20032;-63
2023/04/06 10:53:48;;;;;;;12.50;7.80;;;11.70;94.10;;;;;;5038454;28;20040;-60
2023/04/06 10:56:15;;;;;;;12.05;7.25;;;11.70;94.10;;;;;;5043298;28;20036;-61
2023/04/06 10:58:48;;;;;;;11.50;7.47;;;11.70;94.30;;;;;;5044574;28;20040;-66
2023/04/06 11:01:16;;;;;;;10.77;7.00;;;11.80;94.10;;;;;;5043550;28;20039;-62
2023/04/06 11:03:46;;;;;;;12.07;7.35;;;11.80;94.00;;;;;;5052696;28;20032;-60
2023/04/06 11:06:26;;;;;;;8.88;6.93;;;11.80;93.90;;;;;;5049694;28;20024;-60
2023/04/06 11:08:53;;;;;;;12.50;7.13;;;11.90;93.80;;;;;;5052645;28;20084;-62
2023/04/06 11:11:21;;;;;;;9.23;6.47;;;11.90;93.70;;;;;;5029667;28;20707;-61
2023/04/06 11:13:58;;;;;;;10.18;6.75;;;12.00;93.60;;;;;;5034889;28;20616;-60
2023/04/06 11:16:32;;;;;;;10.38;7.07;;;12.00;93.40;;;;;;5041830;28;20032;-60
2023/04/06 11:19:01;;;;;;;9.32;6.47;;;12.00;93.20;;;;;;5049669;28;20040;-61
2023/04/06 11:21:47;;;;;;;9.75;6.65;;;11.90;93.40;;;;;;5042921;28;20065;-59
2023/04/06 11:24:19;;;;;;;11.15;6.90;;;12.00;93.40;;;;;;5033305;28;20084;-58
2023/04/06 11:26:45;;;;;;;8.35;6.00;;;12.10;93.40;;;;;;5043331;28;20033;-62
2023/04/06 11:29:19;;;;;;;8.57;6.18;;;12.10;93.20;;;;;;5035857;28;20027;-61
2023/04/06 11:31:57;;;;;;;9.43;5.70;;;12.20;93.10;;;;;;5042212;28;20039;-60
2023/04/06 11:34:24;;;;;;;7.82;5.97;;;12.20;93.00;;;;;;5041673;28;20043;-62
2023/04/06 11:37:02;;;;;;;8.63;5.43;;;12.20;92.80;;;;;;5034206;28;20066;-63
2023/04/06 11:39:29;;;;;;;7.80;5.45;;;12.30;92.70;;;;;;5034170;28;20038;-61
2023/04/06 11:41:58;;;;;;;8.45;5.57;;;12.30;92.70;;;;;;5042631;28;20040;-62
2023/04/06 11:44:33;;;;;;;7.43;5.70;;;12.30;92.60;;;;;;5047924;28;20546;-62
2023/04/06 11:47:00;;;;;;;7.68;5.30;;;12.30;92.40;;;;;;5040013;28;20028;-61
2023/04/06 11:49:30;;;;;;;6.13;5.03;;;12.30;92.30;;;;;;5046237;28;20024;-61
2023/04/06 11:51:58;;;;;;;6.07;4.25;;;12.30;92.20;;;;;;5043821;28;20056;-60
2023/04/06 11:54:37;;;;;;;6.82;5.00;;;12.30;92.20;;;;;;5051926;28;20105;-60
2023/04/06 11:57:06;;;;;;;6.78;4.80;;;12.30;92.10;;;;;;5045755;28;20051;-62
2023/04/06 11:59:32;;;;;;;8.73;5.18;;;12.30;92.20;;;;;;5018260;28;20091;-62
2023/04/06 12:01:58;;;;;;;6.38;5.25;;;12.30;92.10;;;;;;5040420;28;20110;-60
2023/04/06 12:04:24;;;;;;;7.82;5.10;;;12.30;92.00;;;;;;5043596;28;20037;-62
2023/04/06 12:06:50;;;;;;;7.43;5.20;;;12.20;91.90;;;;;;5036620;28;20563;-63
2023/04/06 12:09:20;;;;;;;8.05;5.53;;;12.20;91.90;;;;;;5044949;28;20040;-59
2023/04/06 12:11:45;;;;;;;6.57;4.95;;;12.20;92.00;;;;;;5046690;28;20029;-64
2023/04/06 12:14:12;;;;;;;7.13;4.82;;;12.20;92.00;;;;;;5048236;28;20388;-63
2023/04/06 12:16:37;;;;;;;8.57;5.45;;;12.20;92.10;;;;;;5047013;28;20135;-64
2023/04/06 12:19:04;;;;;;;7.13;5.07;;;12.10;92.00;;;;;;5044382;28;20374;-62
2023/04/06 12:21:35;;;;;;;7.22;4.93;;;12.10;92.10;;;;;;5043957;28;20102;-62
2023/04/06 12:24:00;;;;;;;7.55;5.00;;;12.10;92.20;;;;;;5047895;28;20052;-62
2023/04/06 12:26:27;;;;;;;5.95;4.30;;;12.10;92.30;;;;;;5039131;28;20064;-63
2023/04/06 12:28:53;;;;;;;8.20;5.60;;;12.10;92.10;;;;;;5043794;28;20045;-64
2023/04/06 12:31:20;;;;;;;6.47;4.60;;;12.00;91.80;;;;;;5041302;28;20138;-62
2023/04/06 12:33:50;;;;;;;5.78;4.55;;;12.00;91.90;;;;;;5045591;28;20032;-60
2023/04/06 12:36:21;;;;;;;6.78;4.35;;;11.90;92.10;;;;;;5045695;28;20028;-63
2023/04/06 12:38:50;;;;;;;5.47;4.32;;;11.90;92.20;;;;;;5032874;28;20029;-65
2023/04/06 12:41:16;;;;;;;5.10;3.90;;;11.80;92.30;;;;;;5042930;28;20568;-66